sensor_id;sensor_type;location;lat;lon;timestamp;pressure;altitude;pressure_sealevel;temperature;humidity
20077;BME280;12348;42.710;23.378;2024-03-23T00:56:12;95181.84;;;2.44;100.00
20077;BME280;12348;42.710;23.378;2024-03-23T00:58:37;95188.66;;;2.68;100.00
20077;BME280;12348;42.710;23.378;2024-03-23T01:01:03;95190.56;;;2.56;100.00
20077;BME280;12348;42.710;23.378;2024-03-23T01:03:31;95182.97;;;2.77;100.00
20077;BME280;12348;42.710;23.378;2024-03-23T01:06:02;95176.03;;;2.76;100.00
20077;BME280;12348;42.710;23.378;2024-03-23T01:08:29;95181.19;;;2.65;100.00
20077;BME280;12348;42.710;23.378;2024-03-23T01:10:59;95176.88;;;2.93;100.00
20077;BME280;12348;42.710;23.378;2024-03-23T01:13:24;95175.81;;;2.77;100.00
20077;BME280;12348;42.710;23.378;2024-03-23T01:15:50;95174.94;;;2.60;100.00
20077;BME280;12348;42.710;23.378;2024-03-23T01:18:20;95168.94;;;2.36;100.00
20077;BME280;12348;42.710;23.378;2024-03-23T01:20:45;95178.78;;;2.52;100.00
20077;BME280;12348;42.710;23.378;2024-03-23T01:23:11;95173.47;;;2.24;100.00
20077;BME280;12348;42.710;23.378;2024-03-23T01:25:37;95178.59;;;2.13;100.00
20077;BME280;12348;42.710;23.378;2024-03-23T01:28:02;95177.13;;;2.06;100.00
20077;BME280;12348;42.710;23.378;2024-03-23T01:30:28;95182.56;;;1.99;100.00
20077;BME280;12348;42.710;23.378;2024-03-23T01:32:53;95178.53;;;1.85;100.00
20077;BME280;12348;42.710;23.378;2024-03-23T01:35:19;95175.19;;;1.78;100.00
20077;BME280;12348;42.710;23.378;2024-03-23T01:37:44;95173.72;;;1.70;100.00
20077;BME280;12348;42.710;23.378;2024-03-23T01:40:10;95180.28;;;1.56;100.00
20077;BME280;12348;42.710;23.378;2024-03-23T01:42:35;95183.06;;;1.49;100.00
20077;BME280;12348;42.710;23.378;2024-03-23T01:45:01;95173.25;;;1.38;100.00
20077;BME280;12348;42.710;23.378;2024-03-23T01:47:26;95172.69;;;1.48;100.00
20077;BME280;12348;42.710;23.378;2024-03-23T01:49:52;95182.34;;;1.30;100.00
20077;BME280;12348;42.710;23.378;2024-03-23T01:52:17;95176.25;;;1.30;100.00
20077;BME280;12348;42.710;23.378;2024-03-23T01:54:43;95170.16;;;1.41;100.00
20077;BME280;12348;42.710;23.378;2024-03-23T01:57:10;95174.28;;;1.37;100.00
20077;BME280;12348;42.710;23.378;2024-03-23T01:59:35;95183.50;;;1.34;100.00
20077;BME280;12348;42.710;23.378;2024-03-23T02:02:01;95188.69;;;1.17;100.00
20077;BME280;12348;42.710;23.378;2024-03-23T02:04:26;95184.66;;;1.15;100.00
20077;BME280;12348;42.710;23.378;2024-03-23T02:06:51;95176.25;;;1.06;100.00
20077;BME280;12348;42.710;23.378;2024-03-23T02:09:17;95180.28;;;1.09;100.00
20077;BME280;12348;42.710;23.378;2024-03-23T02:11:42;95184.56;;;1.21;100.00
20077;BME280;12348;42.710;23.378;2024-03-23T02:14:08;95181.91;;;1.21;100.00
20077;BME280;12348;42.710;23.378;2024-03-23T02:16:34;95178.66;;;1.19;100.00
20077;BME280;12348;42.710;23.378;2024-03-23T02:19:01;95179.78;;;1.00;100.00
20077;BME280;12348;42.710;23.378;2024-03-23T02:21:26;95181.28;;;0.96;100.00
20077;BME280;12348;42.710;23.378;2024-03-23T02:23:52;95189.50;;;1.06;100.00
20077;BME280;12348;42.710;23.378;2024-03-23T02:26:18;95187.19;;;0.98;100.00
20077;BME280;12348;42.710;23.378;2024-03-23T02:28:43;95187.53;;;0.90;100.00
20077;BME280;12348;42.710;23.378;2024-03-23T02:31:09;95195.13;;;0.86;100.00
20077;BME280;12348;42.710;23.378;2024-03-23T02:33:34;95196.47;;;0.89;100.00
20077;BME280;12348;42.710;23.378;2024-03-23T02:36:03;95188.69;;;0.94;100.00
20077;BME280;12348;42.710;23.378;2024-03-23T02:38:28;95183.13;;;0.84;100.00
20077;BME280;12348;42.710;23.378;2024-03-23T02:40:54;95190.63;;;0.87;100.00
20077;BME280;12348;42.710;23.378;2024-03-23T02:43:19;95185.75;;;0.84;100.00
20077;BME280;12348;42.710;23.378;2024-03-23T02:45:45;95182.31;;;0.83;100.00
20077;BME280;12348;42.710;23.378;2024-03-23T02:48:10;95186.91;;;0.76;100.00
20077;BME280;12348;42.710;23.378;2024-03-23T02:50:35;95186.81;;;0.83;100.00
20077;BME280;12348;42.710;23.378;2024-03-23T02:53:01;95182.94;;;0.67;100.00
20077;BME280;12348;42.710;23.378;2024-03-23T02:55:27;95177.44;;;0.68;100.00
20077;BME280;12348;42.710;23.378;2024-03-23T02:57:52;95184.34;;;0.69;100.00
20077;BME280;12348;42.710;23.378;2024-03-23T03:00:17;95189.06;;;0.67;100.00
20077;BME280;12348;42.710;23.378;2024-03-23T03:02:43;95190.69;;;0.68;100.00
20077;BME280;12348;42.710;23.378;2024-03-23T03:05:08;95184.22;;;0.64;100.00
20077;BME280;12348;42.710;23.378;2024-03-23T03:07:34;95185.59;;;0.67;100.00
20077;BME280;12348;42.710;23.378;2024-03-23T03:10:00;95184.44;;;0.63;100.00
20077;BME280;12348;42.710;23.378;2024-03-23T03:12:25;95181.78;;;0.63;100.00
20077;BME280;12348;42.710;23.378;2024-03-23T03:14:51;95186.72;;;0.59;100.00
20077;BME280;12348;42.710;23.378;2024-03-23T03:17:16;95182.59;;;0.63;100.00
20077;BME280;12348;42.710;23.378;2024-03-23T03:19:42;95188.81;;;0.57;100.00
20077;BME280;12348;42.710;23.378;2024-03-23T03:22:07;95184.19;;;0.53;100.00
20077;BME280;12348;42.710;23.378;2024-03-23T03:24:32;95187.97;;;0.45;100.00
20077;BME280;12348;42.710;23.378;2024-03-23T03:26:58;95187.81;;;0.40;100.00
20077;BME280;12348;42.710;23.378;2024-03-23T03:29:23;95189.78;;;0.44;100.00
20077;BME280;12348;42.710;23.378;2024-03-23T03:31:49;95193.72;;;0.42;100.00
20077;BME280;12348;42.710;23.378;2024-03-23T03:34:15;95193.56;;;0.37;100.00
20077;BME280;12348;42.710;23.378;2024-03-23T03:36:40;95193.75;;;0.54;100.00
20077;BME280;12348;42.710;23.378;2024-03-23T03:39:06;95189.28;;;0.36;100.00
20077;BME280;12348;42.710;23.378;2024-03-23T03:41:32;95187.09;;;0.33;100.00
20077;BME280;12348;42.710;23.378;2024-03-23T03:43:57;95187.53;;;0.30;100.00
20077;BME280;12348;42.710;23.378;2024-03-23T03:46:27;95190.78;;;0.32;100.00
20077;BME280;12348;42.710;23.378;2024-03-23T03:48:54;95196.47;;;0.47;100.00
20077;BME280;12348;42.710;23.378;2024-03-23T03:51:19;95186.09;;;0.34;100.00
20077;BME280;12348;42.710;23.378;2024-03-23T03:53:45;95186.56;;;0.42;100.00
20077;BME280;12348;42.710;23.378;2024-03-23T03:56:10;95191.09;;;0.54;100.00
20077;BME280;12348;42.710;23.378;2024-03-23T03:58:36;95190.28;;;0.53;100.00
20077;BME280;12348;42.710;23.378;2024-03-23T04:01:01;95186.31;;;0.44;100.00
20077;BME280;12348;42.710;23.378;2024-03-23T04:03:26;95190.19;;;0.60;100.00
20077;BME280;12348;42.710;23.378;2024-03-23T04:05:54;95187.19;;;0.56;100.00
20077;BME280;12348;42.710;23.378;2024-03-23T04:08:20;95198.25;;;0.53;100.00
20077;BME280;12348;42.710;23.378;2024-03-23T04:10:46;95188.66;;;0.52;100.00
20077;BME280;12348;42.710;23.378;2024-03-23T04:13:14;95192.34;;;0.51;100.00
20077;BME280;12348;42.710;23.378;2024-03-23T04:15:40;95192.53;;;0.68;100.00
20077;BME280;12348;42.710;23.378;2024-03-23T04:18:06;95199.53;;;0.62;100.00
20077;BME280;12348;42.710;23.378;2024-03-23T04:20:31;95207.22;;;0.82;100.00
20077;BME280;12348;42.710;23.378;2024-03-23T04:22:58;95203.34;;;0.66;100.00
20077;BME280;12348;42.710;23.378;2024-03-23T04:25:23;95204.97;;;0.67;100.00
20077;BME280;12348;42.710;23.378;2024-03-23T04:27:48;95202.72;;;0.83;100.00
20077;BME280;12348;42.710;23.378;2024-03-23T04:30:14;95203.34;;;0.66;100.00
20077;BME280;12348;42.710;23.378;2024-03-23T04:32:40;95199.16;;;1.01;100.00
20077;BME280;12348;42.710;23.378;2024-03-23T04:35:07;95207.75;;;1.50;100.00
20077;BME280;12348;42.710;23.378;2024-03-23T04:37:36;95197.34;;;1.95;100.00
20077;BME280;12348;42.710;23.378;2024-03-23T04:40:02;95194.31;;;2.72;100.00
20077;BME280;12348;42.710;23.378;2024-03-23T04:42:28;95194.03;;;3.36;100.00
20077;BME280;12348;42.710;23.378;2024-03-23T04:44:54;95197.94;;;3.84;100.00
20077;BME280;12348;42.710;23.378;2024-03-23T04:47:19;95206.25;;;4.48;100.00
20077;BME280;12348;42.710;23.378;2024-03-23T04:49:44;95207.25;;;5.23;100.00
20077;BME280;12348;42.710;23.378;2024-03-23T04:52:11;95208.50;;;5.48;100.00
20077;BME280;12348;42.710;23.378;2024-03-23T04:54:38;95207.81;;;5.57;94.04
20077;BME280;12348;42.710;23.378;2024-03-23T04:57:05;95204.94;;;6.06;89.81
20077;BME280;12348;42.710;23.378;2024-03-23T04:59:31;95207.19;;;7.54;79.48
20077;BME280;12348;42.710;23.378;2024-03-23T05:01:56;95202.78;;;8.40;70.74
20077;BME280;12348;42.710;23.378;2024-03-23T05:04:22;95207.66;;;8.97;71.07
20077;BME280;12348;42.710;23.378;2024-03-23T05:06:48;95207.34;;;9.04;63.29
20077;BME280;12348;42.710;23.378;2024-03-23T05:09:13;95205.81;;;9.66;60.50
20077;BME280;12348;42.710;23.378;2024-03-23T05:11:39;95206.31;;;9.74;58.36
20077;BME280;12348;42.710;23.378;2024-03-23T05:14:04;95204.72;;;9.33;58.62
20077;BME280;12348;42.710;23.378;2024-03-23T05:16:30;95203.22;;;10.19;56.71
20077;BME280;12348;42.710;23.378;2024-03-23T05:18:55;95197.94;;;11.57;54.42
20077;BME280;12348;42.710;23.378;2024-03-23T05:21:20;95200.31;;;11.77;50.67
20077;BME280;12348;42.710;23.378;2024-03-23T05:23:46;95187.03;;;12.00;51.67
20077;BME280;12348;42.710;23.378;2024-03-23T05:26:11;95188.44;;;12.80;48.60
20077;BME280;12348;42.710;23.378;2024-03-23T05:28:37;95187.44;;;12.07;49.31
20077;BME280;12348;42.710;23.378;2024-03-23T05:31:02;95187.09;;;12.55;48.96
20077;BME280;12348;42.710;23.378;2024-03-23T05:33:28;95187.31;;;13.08;47.50
20077;BME280;12348;42.710;23.378;2024-03-23T05:35:57;95197.69;;;13.88;45.90
20077;BME280;12348;42.710;23.378;2024-03-23T05:38:23;95198.34;;;14.87;44.40
20077;BME280;12348;42.710;23.378;2024-03-23T05:40:59;95192.38;;;15.59;42.18
20077;BME280;12348;42.710;23.378;2024-03-23T05:43:25;95195.44;;;16.48;41.41
20077;BME280;12348;42.710;23.378;2024-03-23T05:45:55;95193.09;;;17.35;39.12
20077;BME280;12348;42.710;23.378;2024-03-23T05:48:20;95188.34;;;16.64;39.71
20077;BME280;12348;42.710;23.378;2024-03-23T05:50:46;95192.25;;;17.23;39.32
20077;BME280;12348;42.710;23.378;2024-03-23T05:53:11;95190.81;;;18.33;37.99
20077;BME280;12348;42.710;23.378;2024-03-23T05:55:38;95189.47;;;17.94;37.32
20077;BME280;12348;42.710;23.378;2024-03-23T05:58:03;95183.38;;;17.05;39.10
20077;BME280;12348;42.710;23.378;2024-03-23T06:00:29;95188.69;;;16.54;39.48
20077;BME280;12348;42.710;23.378;2024-03-23T06:02:54;95185.31;;;17.25;39.02
20077;BME280;12348;42.710;23.378;2024-03-23T06:05:20;95183.16;;;18.14;38.25
20077;BME280;12348;42.710;23.378;2024-03-23T06:07:45;95186.59;;;19.18;36.81
20077;BME280;12348;42.710;23.378;2024-03-23T06:10:12;95183.06;;;18.93;36.77
20077;BME280;12348;42.710;23.378;2024-03-23T06:12:39;95187.66;;;17.56;38.45
20077;BME280;12348;42.710;23.378;2024-03-23T06:15:04;95175.69;;;16.68;39.84
20077;BME280;12348;42.710;23.378;2024-03-23T06:17:30;95179.00;;;17.12;39.06
20077;BME280;12348;42.710;23.378;2024-03-23T06:19:55;95182.41;;;16.33;40.38
20077;BME280;12348;42.710;23.378;2024-03-23T06:22:21;95178.00;;;15.93;41.00
20077;BME280;12348;42.710;23.378;2024-03-23T06:24:47;95179.03;;;16.27;40.60
20077;BME280;12348;42.710;23.378;2024-03-23T06:27:12;95179.19;;;17.37;39.33
20077;BME280;12348;42.710;23.378;2024-03-23T06:29:37;95180.16;;;17.95;38.84
20077;BME280;12348;42.710;23.378;2024-03-23T06:32:03;95176.47;;;17.79;38.67
20077;BME280;12348;42.710;23.378;2024-03-23T06:34:28;95171.84;;;18.95;37.15
20077;BME280;12348;42.710;23.378;2024-03-23T06:36:54;95175.63;;;20.39;34.95
20077;BME280;12348;42.710;23.378;2024-03-23T06:39:19;95175.53;;;21.66;33.33
20077;BME280;12348;42.710;23.378;2024-03-23T06:41:52;95181.47;;;22.68;32.33
20077;BME280;12348;42.710;23.378;2024-03-23T06:44:18;95179.16;;;21.70;32.16
20077;BME280;12348;42.710;23.378;2024-03-23T06:46:44;95176.84;;;19.70;35.07
20077;BME280;12348;42.710;23.378;2024-03-23T06:49:09;95178.25;;;19.27;35.64
20077;BME280;12348;42.710;23.378;2024-03-23T06:51:35;95183.28;;;18.63;36.59
20077;BME280;12348;42.710;23.378;2024-03-23T06:54:01;95172.31;;;19.90;34.96
20077;BME280;12348;42.710;23.378;2024-03-23T06:56:27;95168.06;;;20.04;34.93
20077;BME280;12348;42.710;23.378;2024-03-23T06:58:52;95168.28;;;19.31;35.45
20077;BME280;12348;42.710;23.378;2024-03-23T07:01:18;95177.78;;;17.93;37.06
20077;BME280;12348;42.710;23.378;2024-03-23T07:03:44;95174.53;;;17.79;37.85
20077;BME280;12348;42.710;23.378;2024-03-23T07:06:10;95169.94;;;17.50;38.81
20077;BME280;12348;42.710;23.378;2024-03-23T07:08:36;95167.34;;;17.54;38.49
20077;BME280;12348;42.710;23.378;2024-03-23T07:11:02;95165.78;;;18.52;37.23
20077;BME280;12348;42.710;23.378;2024-03-23T07:13:28;95164.31;;;15.72;40.98
20077;BME280;12348;42.710;23.378;2024-03-23T07:15:53;95160.75;;;18.54;37.50
20077;BME280;12348;42.710;23.378;2024-03-23T07:18:21;95169.81;;;17.26;39.14
20077;BME280;12348;42.710;23.378;2024-03-23T07:20:56;95153.13;;;16.77;40.24
20077;BME280;12348;42.710;23.378;2024-03-23T07:23:22;95158.88;;;18.79;37.70
20077;BME280;12348;42.710;23.378;2024-03-23T07:25:58;95148.84;;;19.60;35.86
20077;BME280;12348;42.710;23.378;2024-03-23T07:28:23;95141.19;;;20.50;34.71
20077;BME280;12348;42.710;23.378;2024-03-23T07:31:09;95149.97;;;19.59;35.90
20077;BME280;12348;42.710;23.378;2024-03-23T07:33:45;95138.16;;;20.55;34.69
20077;BME280;12348;42.710;23.378;2024-03-23T07:36:11;95145.88;;;21.01;34.83
20077;BME280;12348;42.710;23.378;2024-03-23T07:38:37;95143.41;;;21.12;33.56
20077;BME280;12348;42.710;23.378;2024-03-23T07:43:28;95135.28;;;21.89;32.97
20077;BME280;12348;42.710;23.378;2024-03-23T07:45:54;95135.84;;;21.40;33.30
20077;BME280;12348;42.710;23.378;2024-03-23T07:48:21;95138.91;;;23.58;31.01
20077;BME280;12348;42.710;23.378;2024-03-23T07:50:57;95132.84;;;22.69;31.25
20077;BME280;12348;42.710;23.378;2024-03-23T07:53:22;95132.31;;;21.24;33.15
20077;BME280;12348;42.710;23.378;2024-03-23T07:55:55;95135.56;;;21.65;32.94
20077;BME280;12348;42.710;23.378;2024-03-23T07:58:21;95117.25;;;23.26;31.65
20077;BME280;12348;42.710;23.378;2024-03-23T08:00:46;95129.72;;;21.47;32.75
20077;BME280;12348;42.710;23.378;2024-03-23T08:03:11;95123.81;;;20.46;34.42
20077;BME280;12348;42.710;23.378;2024-03-23T08:05:37;95122.94;;;20.90;34.59
20077;BME280;12348;42.710;23.378;2024-03-23T08:08:02;95130.84;;;20.00;35.88
20077;BME280;12348;42.710;23.378;2024-03-23T08:10:29;95123.81;;;20.15;36.28
20077;BME280;12348;42.710;23.378;2024-03-23T08:12:55;95115.69;;;20.34;35.44
20077;BME280;12348;42.710;23.378;2024-03-23T08:15:20;95125.63;;;20.54;35.92
20077;BME280;12348;42.710;23.378;2024-03-23T08:17:46;95110.28;;;20.66;36.04
20077;BME280;12348;42.710;23.378;2024-03-23T08:20:12;95126.50;;;19.43;37.05
20077;BME280;12348;42.710;23.378;2024-03-23T08:22:37;95111.88;;;20.51;36.04
20077;BME280;12348;42.710;23.378;2024-03-23T08:25:03;95122.00;;;22.53;33.68
20077;BME280;12348;42.710;23.378;2024-03-23T08:27:28;95111.22;;;23.43;31.77
20077;BME280;12348;42.710;23.378;2024-03-23T08:29:53;95110.38;;;24.03;31.10
20077;BME280;12348;42.710;23.378;2024-03-23T08:32:19;95110.88;;;23.75;30.95
20077;BME280;12348;42.710;23.378;2024-03-23T08:34:45;95107.16;;;23.64;31.60
20077;BME280;12348;42.710;23.378;2024-03-23T08:37:10;95103.31;;;23.38;31.51
20077;BME280;12348;42.710;23.378;2024-03-23T08:39:35;95104.19;;;23.76;31.11
20077;BME280;12348;42.710;23.378;2024-03-23T08:42:01;95098.16;;;24.01;31.27
20077;BME280;12348;42.710;23.378;2024-03-23T08:44:26;95093.09;;;24.88;29.91
20077;BME280;12348;42.710;23.378;2024-03-23T08:46:52;95097.88;;;24.95;29.59
20077;BME280;12348;42.710;23.378;2024-03-23T08:49:17;95090.31;;;22.82;32.23
20077;BME280;12348;42.710;23.378;2024-03-23T08:51:43;95087.28;;;24.11;30.28
20077;BME280;12348;42.710;23.378;2024-03-23T08:54:08;95082.34;;;23.90;29.95
20077;BME280;12348;42.710;23.378;2024-03-23T08:56:34;95083.72;;;21.75;32.26
20077;BME280;12348;42.710;23.378;2024-03-23T08:58:59;95073.19;;;22.92;31.23
20077;BME280;12348;42.710;23.378;2024-03-23T09:01:25;95067.56;;;23.08;30.64
20077;BME280;12348;42.710;23.378;2024-03-23T09:03:50;95071.56;;;21.18;33.14
20077;BME280;12348;42.710;23.378;2024-03-23T09:06:16;95064.75;;;22.78;31.63
20077;BME280;12348;42.710;23.378;2024-03-23T09:08:42;95064.50;;;21.95;31.53
20077;BME280;12348;42.710;23.378;2024-03-23T09:11:10;95057.56;;;22.01;31.27
20077;BME280;12348;42.710;23.378;2024-03-23T09:13:36;95056.97;;;21.92;31.75
20077;BME280;12348;42.710;23.378;2024-03-23T09:16:02;95053.19;;;20.99;33.41
20077;BME280;12348;42.710;23.378;2024-03-23T09:18:31;95053.56;;;22.41;31.52
20077;BME280;12348;42.710;23.378;2024-03-23T09:20:57;95037.75;;;23.40;30.37
20077;BME280;12348;42.710;23.378;2024-03-23T09:23:22;95041.16;;;21.82;31.18
20077;BME280;12348;42.710;23.378;2024-03-23T09:25:48;95038.13;;;23.09;30.31
20077;BME280;12348;42.710;23.378;2024-03-23T09:28:13;95030.88;;;22.93;30.95
20077;BME280;12348;42.710;23.378;2024-03-23T09:30:38;95027.97;;;21.68;31.99
20077;BME280;12348;42.710;23.378;2024-03-23T09:33:13;95018.13;;;21.86;31.45
20077;BME280;12348;42.710;23.378;2024-03-23T09:35:43;95016.06;;;22.75;30.98
20077;BME280;12348;42.710;23.378;2024-03-23T09:38:09;95019.97;;;21.59;31.65
20077;BME280;12348;42.710;23.378;2024-03-23T09:40:40;95008.56;;;22.45;31.39
20077;BME280;12348;42.710;23.378;2024-03-23T09:43:07;94994.97;;;23.43;30.59
20077;BME280;12348;42.710;23.378;2024-03-23T09:45:36;94997.41;;;23.85;30.05
20077;BME280;12348;42.710;23.378;2024-03-23T09:48:03;94996.69;;;22.64;31.79
20077;BME280;12348;42.710;23.378;2024-03-23T09:50:29;94986.13;;;21.71;32.19
20077;BME280;12348;42.710;23.378;2024-03-23T09:52:56;94988.91;;;20.93;33.31
20077;BME280;12348;42.710;23.378;2024-03-23T09:55:22;94985.38;;;20.93;33.73
20077;BME280;12348;42.710;23.378;2024-03-23T09:57:47;94980.75;;;22.47;32.33
20077;BME280;12348;42.710;23.378;2024-03-23T10:00:13;94976.41;;;21.96;31.75
20077;BME280;12348;42.710;23.378;2024-03-23T10:02:38;94977.16;;;20.93;34.13
20077;BME280;12348;42.710;23.378;2024-03-23T10:05:04;94972.63;;;19.82;35.25
20077;BME280;12348;42.710;23.378;2024-03-23T10:07:29;94966.09;;;21.28;33.42
20077;BME280;12348;42.710;23.378;2024-03-23T10:09:55;94962.66;;;21.50;33.61
20077;BME280;12348;42.710;23.378;2024-03-23T10:12:22;94961.31;;;22.33;32.40
20077;BME280;12348;42.710;23.378;2024-03-23T10:14:48;94951.50;;;22.32;32.16
20077;BME280;12348;42.710;23.378;2024-03-23T10:17:22;94945.56;;;23.13;31.02
20077;BME280;12348;42.710;23.378;2024-03-23T10:19:52;94950.31;;;22.59;31.74
20077;BME280;12348;42.710;23.378;2024-03-23T10:22:18;94947.09;;;21.16;32.82
20077;BME280;12348;42.710;23.378;2024-03-23T10:24:44;94945.66;;;21.22;33.55
20077;BME280;12348;42.710;23.378;2024-03-23T10:27:14;94932.78;;;22.37;33.31
20077;BME280;12348;42.710;23.378;2024-03-23T10:29:40;94932.16;;;22.78;33.29
20077;BME280;12348;42.710;23.378;2024-03-23T10:32:12;94929.81;;;22.49;33.24
20077;BME280;12348;42.710;23.378;2024-03-23T10:34:39;94918.31;;;23.68;31.89
20077;BME280;12348;42.710;23.378;2024-03-23T10:37:05;94918.78;;;24.91;30.22
20077;BME280;12348;42.710;23.378;2024-03-23T10:39:39;94910.94;;;23.38;31.65
20077;BME280;12348;42.710;23.378;2024-03-23T10:42:09;94905.03;;;24.29;31.00
20077;BME280;12348;42.710;23.378;2024-03-23T10:44:37;94900.22;;;23.67;31.98
20077;BME280;12348;42.710;23.378;2024-03-23T10:47:04;94895.03;;;24.03;30.34
20077;BME280;12348;42.710;23.378;2024-03-23T10:49:32;94888.00;;;22.07;32.11
20077;BME280;12348;42.710;23.378;2024-03-23T10:52:03;94872.38;;;21.84;32.97
20077;BME280;12348;42.710;23.378;2024-03-23T10:54:30;94875.25;;;22.74;32.60
20077;BME280;12348;42.710;23.378;2024-03-23T10:57:08;94859.09;;;23.40;31.00
20077;BME280;12348;42.710;23.378;2024-03-23T10:59:36;94858.78;;;23.93;31.01
20077;BME280;12348;42.710;23.378;2024-03-23T11:02:02;94857.31;;;24.07;30.95
20077;BME280;12348;42.710;23.378;2024-03-23T11:04:36;94851.25;;;24.42;29.83
20077;BME280;12348;42.710;23.378;2024-03-23T11:09:48;94833.97;;;23.38;30.87
20077;BME280;12348;42.710;23.378;2024-03-23T11:14:52;94825.56;;;23.20;30.81
20077;BME280;12348;42.710;23.378;2024-03-23T11:17:18;94826.91;;;23.85;30.32
20077;BME280;12348;42.710;23.378;2024-03-23T11:20:01;94826.88;;;23.82;30.38
20077;BME280;12348;42.710;23.378;2024-03-23T11:25:23;94816.31;;;23.39;29.61
20077;BME280;12348;42.710;23.378;2024-03-23T11:27:50;94802.34;;;22.81;30.07
20077;BME280;12348;42.710;23.378;2024-03-23T11:30:23;94806.63;;;21.35;31.90
20077;BME280;12348;42.710;23.378;2024-03-23T11:32:51;94798.13;;;21.43;31.88
20077;BME280;12348;42.710;23.378;2024-03-23T11:35:37;94800.38;;;22.44;31.39
20077;BME280;12348;42.710;23.378;2024-03-23T11:38:16;94785.19;;;22.87;30.37
20077;BME280;12348;42.710;23.378;2024-03-23T11:40:48;94785.69;;;22.02;30.98
20077;BME280;12348;42.710;23.378;2024-03-23T11:43:15;94781.69;;;22.23;30.57
20077;BME280;12348;42.710;23.378;2024-03-23T11:45:44;94774.69;;;22.29;30.48
20077;BME280;12348;42.710;23.378;2024-03-23T11:48:15;94762.59;;;22.30;31.27
20077;BME280;12348;42.710;23.378;2024-03-23T11:50:43;94769.56;;;22.24;30.15
20077;BME280;12348;42.710;23.378;2024-03-23T11:55:55;94753.34;;;21.55;31.07
20077;BME280;12348;42.710;23.378;2024-03-23T11:58:22;94747.97;;;21.66;30.44
20077;BME280;12348;42.710;23.378;2024-03-23T12:00:58;94742.06;;;20.68;31.53
20077;BME280;12348;42.710;23.378;2024-03-23T12:03:24;94745.00;;;20.17;32.49
20077;BME280;12348;42.710;23.378;2024-03-23T12:06:01;94736.88;;;20.21;32.43
20077;BME280;12348;42.710;23.378;2024-03-23T12:08:31;94726.91;;;19.74;32.52
20077;BME280;12348;42.710;23.378;2024-03-23T12:11:11;94730.28;;;19.67;32.82
20077;BME280;12348;42.710;23.378;2024-03-23T12:13:38;94718.94;;;19.65;33.51
20077;BME280;12348;42.710;23.378;2024-03-23T12:16:13;94715.00;;;20.21;32.22
20077;BME280;12348;42.710;23.378;2024-03-23T12:18:40;94700.06;;;20.57;32.32
20077;BME280;12348;42.710;23.378;2024-03-23T12:21:06;94693.50;;;20.62;32.07
20077;BME280;12348;42.710;23.378;2024-03-23T12:23:31;94700.41;;;21.01;32.66
20077;BME280;12348;42.710;23.378;2024-03-23T12:25:57;94694.84;;;21.44;32.40
20077;BME280;12348;42.710;23.378;2024-03-23T12:28:23;94690.91;;;21.71;31.50
20077;BME280;12348;42.710;23.378;2024-03-23T12:30:48;94692.38;;;21.12;31.22
20077;BME280;12348;42.710;23.378;2024-03-23T12:33:13;94689.53;;;19.97;32.25
20077;BME280;12348;42.710;23.378;2024-03-23T12:35:39;94693.47;;;19.61;31.88
20077;BME280;12348;42.710;23.378;2024-03-23T12:38:04;94674.59;;;19.72;32.49
20077;BME280;12348;42.710;23.378;2024-03-23T12:40:30;94675.00;;;19.74;32.71
20077;BME280;12348;42.710;23.378;2024-03-23T12:42:55;94669.53;;;19.93;32.77
20077;BME280;12348;42.710;23.378;2024-03-23T12:45:23;94664.31;;;20.27;32.92
20077;BME280;12348;42.710;23.378;2024-03-23T12:47:49;94675.97;;;20.43;33.00
20077;BME280;12348;42.710;23.378;2024-03-23T12:50:14;94666.22;;;20.65;31.94
20077;BME280;12348;42.710;23.378;2024-03-23T12:52:40;94655.66;;;20.44;32.02
20077;BME280;12348;42.710;23.378;2024-03-23T12:55:05;94648.53;;;20.40;32.31
20077;BME280;12348;42.710;23.378;2024-03-23T12:57:31;94648.81;;;20.54;32.68
20077;BME280;12348;42.710;23.378;2024-03-23T12:59:57;94647.34;;;20.60;32.42
20077;BME280;12348;42.710;23.378;2024-03-23T13:02:23;94644.56;;;20.56;31.96
20077;BME280;12348;42.710;23.378;2024-03-23T13:04:55;94634.31;;;20.30;31.53
20077;BME280;12348;42.710;23.378;2024-03-23T13:07:21;94636.44;;;20.18;31.72
20077;BME280;12348;42.710;23.378;2024-03-23T13:09:50;94634.09;;;20.20;32.11
20077;BME280;12348;42.710;23.378;2024-03-23T13:12:16;94625.13;;;19.77;32.08
20077;BME280;12348;42.710;23.378;2024-03-23T13:14:43;94630.25;;;19.43;32.70
20077;BME280;12348;42.710;23.378;2024-03-23T13:17:09;94620.41;;;19.38;32.76
20077;BME280;12348;42.710;23.378;2024-03-23T13:19:34;94623.28;;;19.46;32.19
20077;BME280;12348;42.710;23.378;2024-03-23T13:22:00;94615.28;;;19.37;32.25
20077;BME280;12348;42.710;23.378;2024-03-23T13:24:27;94617.28;;;19.21;32.52
20077;BME280;12348;42.710;23.378;2024-03-23T13:26:53;94614.03;;;18.80;32.68
20077;BME280;12348;42.710;23.378;2024-03-23T13:29:19;94611.13;;;18.25;32.77
20077;BME280;12348;42.710;23.378;2024-03-23T13:31:46;94610.69;;;18.39;32.49
20077;BME280;12348;42.710;23.378;2024-03-23T13:34:12;94603.22;;;18.52;32.37
20077;BME280;12348;42.710;23.378;2024-03-23T13:36:40;94608.06;;;18.58;32.62
20077;BME280;12348;42.710;23.378;2024-03-23T13:39:05;94596.63;;;18.53;32.43
20077;BME280;12348;42.710;23.378;2024-03-23T13:41:44;94593.19;;;18.40;32.85
20077;BME280;12348;42.710;23.378;2024-03-23T13:44:11;94583.16;;;18.28;33.41
20077;BME280;12348;42.710;23.378;2024-03-23T13:46:37;94579.56;;;18.40;34.26
20077;BME280;12348;42.710;23.378;2024-03-23T13:49:03;94579.03;;;18.50;33.12
20077;BME280;12348;42.710;23.378;2024-03-23T13:51:28;94574.91;;;18.25;32.76
20077;BME280;12348;42.710;23.378;2024-03-23T13:53:54;94576.28;;;17.87;33.41
20077;BME280;12348;42.710;23.378;2024-03-23T13:56:20;94564.53;;;17.99;33.22